createdAt,value
2018-06-09T00:00:51.147Z,9.70
2018-06-09T00:03:19.326Z,8.43
2018-06-09T00:05:47.540Z,9.10
2018-06-09T00:08:15.736Z,9.10
2018-06-09T00:10:43.939Z,10.20
2018-06-09T00:13:12.371Z,9.63
2018-06-09T00:15:40.550Z,13.30
2018-06-09T00:18:08.738Z,12.33
2018-06-09T00:20:36.918Z,9.57
2018-06-09T00:23:05.188Z,11.23
2018-06-09T00:25:33.707Z,11.47
2018-06-09T00:28:01.861Z,9.30
2018-06-09T00:30:30.047Z,11.07
2018-06-09T00:32:58.239Z,10.20
2018-06-09T00:35:26.432Z,11.20
2018-06-09T00:37:54.618Z,7.60
2018-06-09T00:40:22.805Z,10.00
2018-06-09T00:42:51.049Z,9.77
2018-06-09T00:45:19.231Z,9.27
2018-06-09T00:47:47.467Z,11.53
2018-06-09T00:50:15.666Z,11.27
2018-06-09T00:52:43.928Z,12.77
2018-06-09T00:55:12.201Z,10.83
2018-06-09T00:57:40.418Z,14.53
2018-06-09T01:00:08.618Z,11.47
2018-06-09T01:02:36.813Z,9.87
2018-06-09T01:05:05.042Z,7.50
2018-06-09T01:07:33.227Z,11.40
2018-06-09T01:10:01.414Z,9.87
2018-06-09T01:12:29.660Z,8.97
2018-06-09T01:14:57.862Z,13.27
2018-06-09T01:17:26.032Z,11.67
2018-06-09T01:19:54.282Z,10.30
2018-06-09T01:22:22.480Z,14.03
2018-06-09T01:24:50.735Z,10.80
2018-06-09T01:27:18.997Z,11.00
2018-06-09T01:29:47.180Z,10.10
2018-06-09T01:32:15.374Z,10.10
2018-06-09T01:34:43.598Z,15.43
2018-06-09T01:37:11.786Z,8.60
2018-06-09T01:39:39.960Z,12.03
2018-06-09T01:42:08.202Z,10.53
2018-06-09T01:44:36.399Z,14.60
2018-06-09T01:47:05.136Z,10.43
2018-06-09T01:49:33.398Z,9.80
2018-06-09T01:52:01.610Z,11.40
2018-06-09T01:54:30.143Z,13.00
2018-06-09T01:56:58.347Z,11.20
2018-06-09T01:59:26.563Z,14.77
2018-06-09T02:01:54.796Z,11.60
2018-06-09T02:04:23.016Z,14.13
2018-06-09T02:06:51.198Z,20.37
2018-06-09T02:09:19.430Z,19.23
2018-06-09T02:11:47.646Z,14.03
2018-06-09T02:14:15.867Z,16.43
2018-06-09T02:16:44.071Z,19.27
2018-06-09T02:19:12.251Z,19.60
2018-06-09T02:21:40.524Z,17.80
2018-06-09T02:24:08.743Z,19.73
2018-06-09T02:26:36.990Z,23.17
2018-06-09T02:29:05.376Z,20.23
2018-06-09T02:31:33.657Z,28.23
2018-06-09T02:34:01.860Z,18.13
2018-06-09T02:36:30.061Z,20.67
2018-06-09T02:38:58.277Z,23.70
2018-06-09T02:41:26.626Z,18.83
2018-06-09T02:43:54.802Z,22.23
2018-06-09T02:46:23.024Z,23.37
2018-06-09T02:48:51.211Z,28.47
2018-06-09T02:51:19.493Z,27.80
2018-06-09T02:53:47.691Z,29.10
2018-06-09T02:56:15.871Z,30.80
2018-06-09T02:58:44.094Z,32.83
2018-06-09T03:01:12.307Z,27.90
2018-06-09T03:03:40.504Z,34.93
2018-06-09T03:06:08.692Z,35.53
2018-06-09T03:08:36.882Z,34.33
2018-06-09T03:11:05.099Z,39.47
2018-06-09T03:13:33.307Z,37.27
2018-06-09T03:16:01.513Z,25.87
2018-06-09T03:18:29.731Z,28.30
2018-06-09T03:20:57.840Z,31.50
2018-06-09T03:23:26.102Z,32.67
2018-06-09T03:25:54.290Z,25.83
2018-06-09T03:28:22.493Z,29.30
2018-06-09T03:30:50.694Z,27.33
2018-06-09T03:33:18.901Z,30.90
2018-06-09T03:35:47.107Z,27.27
2018-06-09T03:38:15.305Z,26.80
2018-06-09T03:40:43.521Z,29.00
2018-06-09T03:43:11.805Z,32.00
2018-06-09T03:45:39.948Z,37.10
2018-06-09T03:48:08.996Z,33.53
2018-06-09T03:50:37.274Z,30.60
2018-06-09T03:53:05.471Z,25.40
2018-06-09T03:55:33.659Z,31.90
2018-06-09T03:58:02.023Z,27.53
2018-06-09T04:00:30.226Z,35.17
2018-06-09T04:02:58.477Z,30.50
2018-06-09T04:05:26.732Z,34.50
2018-06-09T04:07:54.939Z,28.13
2018-06-09T04:10:22.883Z,30.47
2018-06-09T04:12:51.092Z,29.93
2018-06-09T04:15:19.077Z,35.33
2018-06-09T04:17:47.619Z,44.23
2018-06-09T04:20:15.839Z,30.30
2018-06-09T04:22:44.025Z,35.63
2018-06-09T04:25:12.280Z,37.00
2018-06-09T04:27:40.451Z,32.37
2018-06-09T04:30:08.647Z,34.87
2018-06-09T04:32:36.649Z,37.67
2018-06-09T04:35:04.864Z,38.07
2018-06-09T04:37:33.076Z,33.03
2018-06-09T04:40:01.345Z,44.10
2018-06-09T04:42:29.527Z,33.63
2018-06-09T04:44:57.743Z,38.27
2018-06-09T04:47:25.943Z,28.57
2018-06-09T04:49:54.148Z,32.03
2018-06-09T04:52:23.515Z,31.67
2018-06-09T04:54:51.708Z,35.40
2018-06-09T04:57:19.915Z,30.50
2018-06-09T04:59:48.079Z,35.37
2018-06-09T05:02:16.296Z,32.70
2018-06-09T05:04:44.503Z,37.80
2018-06-09T05:07:12.675Z,33.40
2018-06-09T05:09:40.870Z,35.07
2018-06-09T05:12:09.058Z,36.73
2018-06-09T05:14:37.276Z,33.87
2018-06-09T05:17:05.479Z,39.37
2018-06-09T05:19:33.674Z,36.37
2018-06-09T05:22:01.882Z,31.10
2018-06-09T05:24:30.085Z,38.07
2018-06-09T05:26:58.291Z,32.43
2018-06-09T05:29:26.487Z,41.27
2018-06-09T05:31:54.753Z,35.03
2018-06-09T05:34:22.944Z,36.30
2018-06-09T05:36:51.143Z,30.63
2018-06-09T05:39:19.394Z,33.03
2018-06-09T05:41:47.648Z,39.53
2018-06-09T05:44:15.843Z,31.40
2018-06-09T05:46:44.074Z,33.57
2018-06-09T05:49:12.252Z,32.43
2018-06-09T05:51:40.510Z,24.53
2018-06-09T05:54:08.699Z,27.17
2018-06-09T05:56:36.889Z,28.30
2018-06-09T05:59:05.098Z,29.83
2018-06-09T06:01:33.361Z,27.67
2018-06-09T06:04:01.700Z,28.00
2018-06-09T06:06:29.838Z,26.50
2018-06-09T06:08:58.023Z,26.70
2018-06-09T06:11:26.443Z,23.07
2018-06-09T06:13:54.694Z,27.97
2018-06-09T06:16:22.910Z,32.93
2018-06-09T06:18:51.189Z,22.17
2018-06-09T06:21:19.454Z,26.20
2018-06-09T06:23:47.658Z,27.40
2018-06-09T06:26:15.849Z,25.97
2018-06-09T06:28:44.063Z,25.40
2018-06-09T06:31:12.264Z,27.23
2018-06-09T06:33:40.454Z,19.33
2018-06-09T06:36:08.665Z,24.13
2018-06-09T06:38:36.858Z,26.17
2018-06-09T06:41:05.092Z,27.13
2018-06-09T06:43:33.205Z,25.63
2018-06-09T06:46:01.403Z,30.83
2018-06-09T06:48:29.623Z,29.43
2018-06-09T06:50:57.639Z,26.13
2018-06-09T06:53:25.866Z,21.80
2018-06-09T06:55:54.061Z,28.10
2018-06-09T06:58:22.247Z,20.17
2018-06-09T07:00:50.367Z,28.57
2018-06-09T07:03:18.946Z,18.40
2018-06-09T07:05:47.194Z,25.52
2018-06-09T07:08:15.454Z,25.10
2018-06-09T07:10:43.945Z,23.47
2018-06-09T07:13:12.187Z,22.60
2018-06-09T07:15:40.555Z,21.63
2018-06-09T07:18:08.755Z,18.73
2018-06-09T07:20:36.953Z,19.00
2018-06-09T07:23:05.215Z,19.40
2018-06-09T07:25:33.428Z,17.60
2018-06-09T07:28:01.627Z,19.63
2018-06-09T07:30:33.176Z,20.93
2018-06-09T07:33:01.385Z,22.30
2018-06-09T07:35:29.607Z,20.50
2018-06-09T07:37:57.835Z,21.37
2018-06-09T07:40:26.037Z,21.90
2018-06-09T07:42:54.271Z,17.07
2018-06-09T07:45:22.470Z,19.37
2018-06-09T07:47:50.685Z,18.57
2018-06-09T07:50:18.862Z,20.50
2018-06-09T07:52:47.084Z,20.20
2018-06-09T07:55:15.036Z,23.53
2018-06-09T07:57:43.230Z,19.70
2018-06-09T08:00:11.421Z,20.07
2018-06-09T08:02:39.620Z,22.00
2018-06-09T08:05:07.868Z,15.20
2018-06-09T08:07:36.312Z,21.17
2018-06-09T08:10:04.515Z,16.07
2018-06-09T08:12:32.847Z,19.43
2018-06-09T08:15:01.097Z,18.67
2018-06-09T08:17:29.299Z,17.60
2018-06-09T08:19:57.536Z,16.37
2018-06-09T08:22:25.807Z,16.63
2018-06-09T08:24:54.088Z,14.27
2018-06-09T08:27:22.295Z,14.80
2018-06-09T08:29:50.235Z,13.40
2018-06-09T08:32:18.439Z,20.27
2018-06-09T08:34:46.644Z,17.90
2018-06-09T08:37:14.742Z,13.70
2018-06-09T08:39:42.958Z,11.20
2018-06-09T08:42:11.169Z,16.57
2018-06-09T08:44:39.375Z,14.33
2018-06-09T08:47:07.595Z,14.87
2018-06-09T08:49:35.783Z,9.30
2018-06-09T08:52:04.009Z,12.83
2018-06-09T08:54:32.234Z,12.63
2018-06-09T08:57:00.448Z,13.20
2018-06-09T08:59:28.651Z,11.03
2018-06-09T09:01:56.869Z,16.03
2018-06-09T09:04:25.134Z,11.47
2018-06-09T09:06:53.299Z,11.57
2018-06-09T09:09:21.556Z,14.80
2018-06-09T09:11:49.800Z,9.80
2018-06-09T09:14:18.219Z,15.53
2018-06-09T09:16:46.427Z,9.63
2018-06-09T09:19:14.618Z,13.70
2018-06-09T09:21:43.232Z,8.57
2018-06-09T09:24:11.447Z,9.07
2018-06-09T09:26:39.663Z,10.37
2018-06-09T09:29:07.851Z,8.30
2018-06-09T09:31:36.122Z,10.97
2018-06-09T09:34:04.335Z,10.07
2018-06-09T09:36:32.523Z,11.33
2018-06-09T09:39:00.711Z,11.73
2018-06-09T09:41:29.022Z,9.53
2018-06-09T09:43:57.219Z,9.50
2018-06-09T09:46:25.464Z,10.73
2018-06-09T09:48:53.674Z,10.03
2018-06-09T09:51:21.914Z,10.20
2018-06-09T09:53:49.886Z,8.50
2018-06-09T09:56:18.108Z,12.33
2018-06-09T09:58:46.311Z,9.60
2018-06-09T10:01:14.517Z,8.03
2018-06-09T10:03:42.740Z,12.60
2018-06-09T10:06:10.923Z,8.10
2018-06-09T10:08:39.179Z,10.93
2018-06-09T10:11:07.173Z,9.50
2018-06-09T10:13:35.388Z,7.60
2018-06-09T10:16:03.599Z,11.40
2018-06-09T10:18:31.763Z,8.33
2018-06-09T10:20:59.963Z,8.10
2018-06-09T10:23:28.187Z,9.23
2018-06-09T10:25:56.404Z,10.17
2018-06-09T10:28:24.621Z,7.17
2018-06-09T10:30:52.822Z,9.17
2018-06-09T10:33:21.383Z,7.93
2018-06-09T10:35:49.591Z,10.00
2018-06-09T10:38:17.783Z,8.13
2018-06-09T10:40:45.971Z,7.70
2018-06-09T10:43:14.197Z,7.63
2018-06-09T10:45:42.141Z,7.07
2018-06-09T10:48:10.392Z,8.10
2018-06-09T10:50:38.584Z,8.20
2018-06-09T10:53:06.808Z,10.73
2018-06-09T10:55:35.012Z,7.60
2018-06-09T10:58:03.208Z,7.27
2018-06-09T11:00:31.414Z,7.00
2018-06-09T11:02:59.606Z,9.63
2018-06-09T11:05:27.810Z,7.40
2018-06-09T11:07:56.004Z,8.13
2018-06-09T11:10:24.210Z,8.83
2018-06-09T11:12:52.402Z,7.80
2018-06-09T11:15:20.602Z,13.17
2018-06-09T11:17:48.787Z,7.73
2018-06-09T11:20:17.004Z,8.57
2018-06-09T11:22:45.188Z,8.90
2018-06-09T11:25:13.424Z,8.57
2018-06-09T11:27:41.362Z,9.10
2018-06-09T11:30:09.569Z,10.10
2018-06-09T11:32:37.753Z,8.00
2018-06-09T11:35:06.038Z,7.60
2018-06-09T11:37:34.015Z,8.57
2018-06-09T11:40:02.230Z,7.37
2018-06-09T11:42:30.530Z,10.43
2018-06-09T11:44:58.696Z,8.20
2018-06-09T11:47:26.874Z,7.60
2018-06-09T11:49:55.094Z,11.80
2018-06-09T11:52:23.276Z,8.40
2018-06-09T11:54:51.491Z,9.17
2018-06-09T11:57:19.999Z,8.80
2018-06-09T11:59:48.195Z,8.23
2018-06-09T12:02:16.403Z,6.93
2018-06-09T12:04:44.594Z,6.63
2018-06-09T12:07:12.562Z,6.87
2018-06-09T12:09:40.740Z,7.73
2018-06-09T12:12:08.921Z,7.90
2018-06-09T12:14:37.132Z,7.70
2018-06-09T12:17:05.536Z,7.00
2018-06-09T12:19:33.730Z,6.83
2018-06-09T12:22:01.951Z,7.63
2018-06-09T12:24:30.152Z,7.27
2018-06-09T12:26:58.387Z,7.17
2018-06-09T12:29:26.526Z,7.07
2018-06-09T12:31:54.804Z,10.40
2018-06-09T12:34:23.000Z,6.40
2018-06-09T12:36:51.180Z,6.57
2018-06-09T12:39:19.440Z,7.57
2018-06-09T12:41:47.430Z,5.83
2018-06-09T12:44:15.640Z,6.60
2018-06-09T12:46:43.827Z,9.93
2018-06-09T12:49:12.040Z,6.13
2018-06-09T12:51:40.274Z,7.23
2018-06-09T12:54:08.464Z,6.37
2018-06-09T12:56:36.663Z,11.13
2018-06-09T12:59:04.937Z,8.10
2018-06-09T13:01:33.255Z,7.17
2018-06-09T13:04:01.501Z,8.73
2018-06-09T13:06:29.680Z,7.90
2018-06-09T13:08:57.888Z,6.47
2018-06-09T13:11:26.093Z,7.40
2018-06-09T13:13:54.273Z,7.50
2018-06-09T13:16:22.480Z,6.83
2018-06-09T13:18:50.663Z,7.97
2018-06-09T13:21:18.700Z,6.80
2018-06-09T13:23:46.903Z,6.40
2018-06-09T13:26:15.095Z,7.27
2018-06-09T13:28:43.301Z,6.43
2018-06-09T13:31:11.519Z,7.17
2018-06-09T13:33:39.739Z,7.03
2018-06-09T13:36:07.964Z,5.87
2018-06-09T13:38:36.147Z,6.13
2018-06-09T13:41:04.409Z,5.77
2018-06-09T13:43:32.807Z,6.43
2018-06-09T13:46:00.999Z,6.67
2018-06-09T13:48:29.193Z,5.40
2018-06-09T13:50:57.383Z,6.37
2018-06-09T13:53:25.586Z,7.97
2018-06-09T13:55:53.755Z,7.40
2018-06-09T13:58:21.970Z,7.03
2018-06-09T14:00:50.197Z,7.10
2018-06-09T14:03:18.396Z,5.77
2018-06-09T14:05:46.752Z,8.83
2018-06-09T14:08:14.942Z,8.63
2018-06-09T14:10:43.161Z,7.63
2018-06-09T14:13:11.415Z,9.07
2018-06-09T14:15:39.579Z,9.90
2018-06-09T14:18:07.779Z,9.90
2018-06-09T14:20:38.169Z,7.73
2018-06-09T14:23:06.412Z,8.37
2018-06-09T14:25:34.588Z,9.80
2018-06-09T14:28:02.856Z,11.80
2018-06-09T14:30:30.854Z,11.93
2018-06-09T14:32:59.045Z,13.80
2018-06-09T14:35:27.244Z,8.93
2018-06-09T14:37:55.716Z,16.63
2018-06-09T14:40:23.908Z,10.07
2018-06-09T14:42:52.106Z,9.13
2018-06-09T14:45:20.312Z,11.90
2018-06-09T14:47:48.524Z,12.33
2018-06-09T14:50:16.704Z,12.40
2018-06-09T14:52:44.974Z,12.57
2018-06-09T14:55:13.243Z,12.77
2018-06-09T14:57:41.428Z,16.43
2018-06-09T15:00:09.636Z,19.50
2018-06-09T15:02:37.839Z,20.33
2018-06-09T15:05:06.063Z,15.30
2018-06-09T15:07:34.251Z,21.00
2018-06-09T15:10:02.441Z,29.20
2018-06-09T15:12:30.698Z,21.53
2018-06-09T15:14:58.905Z,17.83
2018-06-09T15:17:27.088Z,20.73
2018-06-09T15:19:55.324Z,23.27
2018-06-09T15:22:23.516Z,20.57
2018-06-09T15:24:51.722Z,20.23
2018-06-09T15:27:19.912Z,25.37
2018-06-09T15:29:48.119Z,21.17
2018-06-09T15:32:16.332Z,24.83
2018-06-09T15:34:44.644Z,20.90
2018-06-09T15:37:12.816Z,26.07
2018-06-09T15:39:41.064Z,21.47
2018-06-09T15:42:09.339Z,22.33
2018-06-09T15:44:37.542Z,27.17
2018-06-09T15:47:05.750Z,27.43
2018-06-09T15:49:33.957Z,25.33
2018-06-09T15:52:02.203Z,22.13
2018-06-09T15:54:30.435Z,24.80
2018-06-09T15:56:58.610Z,23.63
2018-06-09T15:59:26.800Z,25.67
2018-06-09T16:01:55.042Z,28.00
2018-06-09T16:04:23.522Z,33.43
2018-06-09T16:06:51.748Z,28.00
2018-06-09T16:09:19.939Z,25.77
2018-06-09T16:11:47.943Z,26.00
2018-06-09T16:14:16.324Z,26.87
2018-06-09T16:16:44.522Z,20.53
2018-06-09T16:19:12.738Z,27.13
2018-06-09T16:21:40.931Z,21.57
2018-06-09T16:24:09.112Z,26.33
2018-06-09T16:26:37.220Z,25.87
2018-06-09T16:29:05.489Z,32.10
2018-06-09T16:31:33.717Z,28.63
2018-06-09T16:34:01.917Z,21.20
2018-06-09T16:36:30.117Z,25.17
2018-06-09T16:38:58.319Z,21.77
2018-06-09T16:41:26.648Z,20.63
2018-06-09T16:43:54.879Z,19.07
2018-06-09T16:46:23.068Z,26.60
2018-06-09T16:48:51.265Z,27.90
2018-06-09T16:51:19.537Z,22.30
2018-06-09T16:53:47.757Z,28.93
2018-06-09T16:56:15.972Z,29.33
2018-06-09T16:58:44.164Z,21.50
2018-06-09T17:01:12.390Z,22.70
2018-06-09T17:03:40.608Z,26.43
2018-06-09T17:06:08.820Z,27.47
2018-06-09T17:08:37.032Z,28.43
2018-06-09T17:11:05.307Z,21.77
2018-06-09T17:13:33.517Z,25.67
2018-06-09T17:16:01.732Z,28.10
2018-06-09T17:18:29.944Z,29.77
2018-06-09T17:20:58.148Z,24.70
2018-06-09T17:23:26.346Z,30.43
2018-06-09T17:25:54.551Z,27.70
2018-06-09T17:28:22.780Z,25.77
2018-06-09T17:30:50.734Z,30.77
2018-06-09T17:33:18.967Z,30.63
2018-06-09T17:35:47.155Z,32.60
2018-06-09T17:38:15.342Z,27.30
2018-06-09T17:40:43.579Z,24.10
2018-06-09T17:43:11.803Z,37.27
2018-06-09T17:45:40.029Z,22.27
2018-06-09T17:48:08.204Z,26.23
2018-06-09T17:50:36.165Z,34.63
2018-06-09T17:53:04.203Z,27.63
2018-06-09T17:55:32.392Z,29.93
2018-06-09T17:58:00.591Z,27.60
2018-06-09T18:00:28.882Z,36.33
2018-06-09T18:02:57.103Z,33.17
2018-06-09T18:05:25.321Z,28.00
2018-06-09T18:07:53.660Z,27.50
2018-06-09T18:10:22.193Z,27.10
2018-06-09T18:12:50.441Z,27.83
2018-06-09T18:15:18.649Z,27.70
2018-06-09T18:17:46.872Z,30.57
2018-06-09T18:20:15.067Z,30.17
2018-06-09T18:22:43.328Z,32.07
2018-06-09T18:25:11.459Z,27.90
2018-06-09T18:27:39.679Z,30.80
2018-06-09T18:30:07.883Z,26.53
2018-06-09T18:32:36.082Z,25.50
2018-06-09T18:35:04.277Z,28.90
2018-06-09T18:37:32.467Z,31.33
2018-06-09T18:40:00.688Z,25.53
2018-06-09T18:42:28.891Z,26.97
2018-06-09T18:44:57.075Z,30.70
2018-06-09T18:47:25.280Z,32.40
2018-06-09T18:49:53.471Z,33.03
2018-06-09T18:52:21.763Z,39.33
2018-06-09T18:54:49.949Z,26.47
2018-06-09T18:57:18.175Z,26.13
2018-06-09T18:59:46.391Z,25.50
2018-06-09T19:02:14.343Z,27.43
2018-06-09T19:04:42.632Z,23.10
2018-06-09T19:07:10.820Z,21.33
2018-06-09T19:09:39.031Z,19.40
2018-06-09T19:12:06.998Z,17.53
2018-06-09T19:14:35.194Z,21.67
2018-06-09T19:17:03.419Z,20.40
2018-06-09T19:19:31.606Z,17.97
2018-06-09T19:21:59.812Z,17.77
2018-06-09T19:24:28.005Z,19.03
2018-06-09T19:26:56.225Z,19.20
2018-06-09T19:29:24.435Z,17.77
2018-06-09T19:31:52.656Z,17.50
2018-06-09T19:34:20.857Z,15.80
2018-06-09T19:36:49.072Z,19.30
2018-06-09T19:39:17.275Z,18.23
2018-06-09T19:41:45.276Z,14.77
2018-06-09T19:44:13.463Z,23.10
2018-06-09T19:46:41.644Z,18.10
2018-06-09T19:49:09.855Z,17.43
2018-06-09T19:51:38.130Z,28.70
2018-06-09T19:54:06.499Z,19.30
2018-06-09T19:56:34.699Z,10.53
2018-06-09T19:59:02.897Z,10.53
2018-06-09T20:01:31.148Z,10.70
2018-06-09T20:03:59.339Z,7.57
2018-06-09T20:06:27.563Z,5.60
2018-06-09T20:08:55.773Z,5.20
2018-06-09T20:11:24.207Z,8.83
2018-06-09T20:13:52.410Z,5.90
2018-06-09T20:16:20.491Z,5.20
2018-06-09T20:18:48.720Z,6.73
2018-06-09T20:21:17.021Z,4.60
2018-06-09T20:23:45.159Z,5.70
2018-06-09T20:26:13.367Z,6.50
2018-06-09T20:28:41.555Z,5.90
2018-06-09T20:31:09.782Z,5.40
2018-06-09T20:33:38.044Z,6.73
2018-06-09T20:36:06.249Z,6.20
2018-06-09T20:38:34.457Z,7.37
2018-06-09T20:41:02.667Z,6.10
2018-06-09T20:43:30.850Z,5.63
2018-06-09T20:45:59.096Z,4.70
2018-06-09T20:48:27.219Z,5.20
2018-06-09T20:50:55.436Z,7.70
2018-06-09T20:53:23.651Z,7.60
2018-06-09T20:55:51.891Z,7.63
2018-06-09T20:58:20.088Z,6.47
2018-06-09T21:00:48.420Z,5.30
2018-06-09T21:03:16.625Z,4.13
2018-06-09T21:05:44.918Z,9.20
2018-06-09T21:08:13.035Z,5.90
2018-06-09T21:10:41.212Z,6.73
2018-06-09T21:13:09.435Z,7.00
2018-06-09T21:15:37.646Z,7.60
2018-06-09T21:18:05.824Z,6.00
2018-06-09T21:20:34.030Z,5.60
2018-06-09T21:23:02.227Z,6.23
2018-06-09T21:25:30.433Z,10.30
2018-06-09T21:28:03.947Z,5.63
2018-06-09T21:30:37.611Z,7.07
2018-06-09T21:33:11.210Z,9.47
2018-06-09T21:35:51.420Z,6.90
2018-06-09T21:38:27.067Z,6.33
2018-06-09T21:41:00.811Z,6.90
2018-06-09T21:43:33.346Z,6.20
2018-06-09T21:46:01.979Z,8.93
2018-06-09T21:48:30.203Z,9.00
2018-06-09T21:50:58.406Z,5.40
2018-06-09T21:53:26.606Z,5.10
2018-06-09T21:55:54.792Z,7.93
2018-06-09T21:58:22.999Z,7.40
2018-06-09T22:00:50.931Z,6.87
2018-06-09T22:03:19.123Z,7.47
2018-06-09T22:05:47.334Z,8.40
2018-06-09T22:08:15.532Z,5.50
2018-06-09T22:10:43.691Z,6.30
2018-06-09T22:13:11.896Z,7.07
2018-06-09T22:15:40.076Z,7.30
2018-06-09T22:18:08.288Z,6.90
2018-06-09T22:20:36.482Z,6.80
2018-06-09T22:23:04.676Z,8.10
2018-06-09T22:25:38.139Z,8.20
2018-06-09T22:28:06.311Z,8.30
2018-06-09T22:30:34.517Z,9.00
2018-06-09T22:33:02.762Z,8.70
2018-06-09T22:35:30.966Z,9.47
2018-06-09T22:37:59.155Z,6.00
2018-06-09T22:40:27.355Z,9.40
2018-06-09T22:42:55.575Z,7.60
2018-06-09T22:45:23.765Z,9.40
2018-06-09T22:47:51.969Z,7.47
2018-06-09T22:50:20.154Z,9.33
2018-06-09T22:52:48.393Z,8.43
2018-06-09T22:55:16.601Z,8.30
2018-06-09T22:57:44.807Z,9.63
2018-06-09T23:00:35.129Z,15.80
2018-06-09T23:03:03.380Z,8.40
2018-06-09T23:05:31.578Z,10.47
2018-06-09T23:07:59.796Z,9.50
2018-06-09T23:10:27.977Z,7.73
2018-06-09T23:12:56.242Z,9.63
2018-06-09T23:15:24.478Z,6.03
2018-06-09T23:17:52.682Z,12.00
2018-06-09T23:20:20.896Z,8.07
2018-06-09T23:22:49.144Z,7.73
2018-06-09T23:25:17.348Z,7.10
2018-06-09T23:27:45.551Z,7.33
2018-06-09T23:30:13.724Z,8.33
2018-06-09T23:32:41.976Z,11.13
2018-06-09T23:35:10.187Z,6.30
2018-06-09T23:37:38.390Z,10.50
2018-06-09T23:40:06.564Z,9.97
2018-06-09T23:42:34.747Z,8.00
2018-06-09T23:45:02.969Z,6.53
2018-06-09T23:47:31.180Z,11.57
2018-06-09T23:49:59.368Z,8.50
2018-06-09T23:52:27.832Z,11.27
2018-06-09T23:54:56.003Z,8.77
2018-06-09T23:57:24.227Z,8.97
2018-06-09T23:59:52.411Z,10.10
